createdAt,value
2024-01-06T00:00:06.148Z,97418.34
2024-01-06T00:02:13.437Z,97409.66
2024-01-06T00:04:15.027Z,97418.63
2024-01-06T00:06:17.560Z,97422.97
2024-01-06T00:08:19.109Z,97418.63
2024-01-06T00:10:21.088Z,97410.75
2024-01-06T00:12:22.649Z,97413.72
2024-01-06T00:14:24.171Z,97412.09
2024-01-06T00:16:27.995Z,97414.25
2024-01-06T00:18:30.990Z,97411.00
2024-01-06T00:20:32.544Z,97412.91
2024-01-06T00:22:34.056Z,97417.00
2024-01-06T00:24:35.593Z,97420.00
2024-01-06T00:26:37.163Z,97414.84
2024-01-06T00:28:40.110Z,97424.38
2024-01-06T00:30:41.654Z,97426.28
2024-01-06T00:32:43.268Z,97425.75
2024-01-06T00:34:44.824Z,97424.38
2024-01-06T00:36:46.417Z,97430.63
2024-01-06T00:38:47.927Z,97432.81
2024-01-06T00:40:49.401Z,97424.94
2024-01-06T00:42:50.885Z,97434.16
2024-01-06T00:44:52.432Z,97434.16
2024-01-06T00:46:53.966Z,97439.91
2024-01-06T00:48:55.508Z,97436.34
2024-01-06T00:50:57.166Z,97439.34
2024-01-06T00:52:58.580Z,97443.16
2024-01-06T00:55:00.039Z,97445.88
2024-01-06T00:57:01.739Z,97440.44
2024-01-06T00:59:03.193Z,97451.31
2024-01-06T01:01:05.000Z,97447.25
2024-01-06T01:03:06.619Z,97448.06
2024-01-06T01:05:08.878Z,97458.13
2024-01-06T01:07:10.372Z,97454.59
2024-01-06T01:09:14.660Z,97464.63
2024-01-06T01:11:16.332Z,97461.91
2024-01-06T01:13:18.434Z,97457.59
2024-01-06T01:15:19.993Z,97462.19
2024-01-06T01:17:21.686Z,97468.72
2024-01-06T01:19:23.253Z,97469.53
2024-01-06T01:21:25.118Z,97479.59
2024-01-06T01:23:26.576Z,97475.00
2024-01-06T01:25:28.102Z,97476.88
2024-01-06T01:27:29.634Z,97485.03
2024-01-06T01:29:31.179Z,97478.81
2024-01-06T01:31:32.817Z,97485.34
2024-01-06T01:33:34.767Z,97483.44
2024-01-06T01:35:36.344Z,97477.16
2024-01-06T01:37:37.799Z,97472.56
2024-01-06T01:39:39.262Z,97476.88
2024-01-06T01:41:41.817Z,97479.88
2024-01-06T01:43:43.356Z,97467.94
2024-01-06T01:45:45.293Z,97475.81
2024-01-06T01:47:47.165Z,97475.81
2024-01-06T01:49:49.156Z,97473.91
2024-01-06T01:51:51.154Z,97475.00
2024-01-06T01:53:53.081Z,97482.06
2024-01-06T01:55:55.202Z,97478.53
2024-01-06T01:57:56.662Z,97488.34
2024-01-06T01:59:58.275Z,97480.19
2024-01-06T02:01:59.741Z,97489.13
2024-01-06T02:04:01.321Z,97477.47
2024-01-06T02:06:03.397Z,97474.72
2024-01-06T02:08:05.551Z,97473.09
2024-01-06T02:10:07.835Z,97477.47
2024-01-06T02:12:09.565Z,97477.47
2024-01-06T02:14:11.024Z,97475.81
2024-01-06T02:16:12.496Z,97483.97
2024-01-06T02:18:14.139Z,97480.44
2024-01-06T02:20:17.356Z,97476.88
2024-01-06T02:22:18.826Z,97473.38
2024-01-06T02:24:21.000Z,97479.59
2024-01-06T02:26:22.483Z,97473.38
2024-01-06T02:28:24.048Z,97463.03
2024-01-06T02:30:25.662Z,97469.28
2024-01-06T02:32:27.431Z,97465.75
2024-01-06T02:34:28.969Z,97463.84
2024-01-06T02:36:30.529Z,97466.56
2024-01-06T02:38:32.016Z,97478.53
2024-01-06T02:40:33.720Z,97476.88
2024-01-06T02:42:35.323Z,97489.41
2024-01-06T02:44:36.832Z,97480.44
2024-01-06T02:46:38.305Z,97483.97
2024-01-06T02:48:40.104Z,97478.00
2024-01-06T02:50:41.617Z,97478.81
2024-01-06T02:52:43.910Z,97486.97
2024-01-06T02:54:45.374Z,97488.06
2024-01-06T02:56:46.869Z,97486.97
2024-01-06T02:58:48.410Z,97483.44
2024-01-06T03:00:49.956Z,97481.53
2024-01-06T03:02:51.563Z,97487.78
2024-01-06T03:04:53.599Z,97493.22
2024-01-06T03:06:55.269Z,97487.78
2024-01-06T03:08:56.780Z,97495.13
2024-01-06T03:10:58.536Z,97494.84
2024-01-06T03:13:00.146Z,97498.41
2024-01-06T03:15:01.778Z,97504.09
2024-01-06T03:17:03.900Z,97501.38
2024-01-06T03:19:05.484Z,97504.09
2024-01-06T03:21:20.796Z,97506.03
2024-01-06T03:23:22.418Z,97498.94
2024-01-06T03:25:23.894Z,97507.63
2024-01-06T03:27:25.572Z,97499.47
2024-01-06T03:29:27.082Z,97498.66
2024-01-06T03:32:29.799Z,97506.03
2024-01-06T03:34:31.402Z,97502.47
2024-01-06T03:39:08.263Z,97510.63
2024-01-06T03:41:09.749Z,97507.09
2024-01-06T03:43:11.504Z,97511.47
2024-01-06T03:45:13.035Z,97520.41
2024-01-06T03:47:28.724Z,97517.69
2024-01-06T03:49:30.414Z,97516.09
2024-01-06T03:51:34.597Z,97507.91
2024-01-06T03:53:36.174Z,97511.47
2024-01-06T03:55:37.641Z,97516.91
2024-01-06T03:57:39.167Z,97513.06
2024-01-06T03:59:40.612Z,97510.34
2024-01-06T04:01:42.173Z,97521.25
2024-01-06T04:03:43.856Z,97519.34
2024-01-06T04:05:45.530Z,97513.91
2024-01-06T04:07:47.114Z,97520.41
2024-01-06T04:09:48.634Z,97518.28
2024-01-06T04:11:50.098Z,97522.06
2024-01-06T04:13:51.528Z,97513.06
2024-01-06T04:15:53.045Z,97517.69
2024-01-06T04:17:56.081Z,97524.78
2024-01-06T04:19:57.700Z,97531.88
2024-01-06T04:21:59.198Z,97533.78
2024-01-06T04:24:00.663Z,97542.75
2024-01-06T04:26:02.716Z,97539.22
2024-01-06T04:28:04.472Z,97537.56
2024-01-06T04:30:06.481Z,97538.38
2024-01-06T04:32:08.717Z,97539.47
2024-01-06T04:34:10.357Z,97535.94
2024-01-06T04:36:11.954Z,97528.03
2024-01-06T04:38:13.452Z,97526.97
2024-01-06T04:40:14.993Z,97522.59
2024-01-06T04:42:16.553Z,97522.59
2024-01-06T04:44:21.766Z,97517.44
2024-01-06T04:46:23.244Z,97523.94
2024-01-06T04:48:25.316Z,97523.13
2024-01-06T04:50:26.925Z,97533.75
2024-01-06T04:52:28.533Z,97537.84
2024-01-06T04:54:30.048Z,97535.38
2024-01-06T04:56:34.046Z,97528.31
2024-01-06T04:58:37.247Z,97538.38
2024-01-06T05:00:38.809Z,97537.53
2024-01-06T05:02:40.420Z,97544.34
2024-01-06T05:04:41.962Z,97538.91
2024-01-06T05:06:43.468Z,97534.56
2024-01-06T05:08:45.982Z,97533.75
2024-01-06T05:10:50.007Z,97537.53
2024-01-06T05:12:52.248Z,97542.16
2024-01-06T05:14:53.737Z,97541.38
2024-01-06T05:16:55.243Z,97544.34
2024-01-06T05:18:56.765Z,97545.44
2024-01-06T05:20:58.645Z,97546.50
2024-01-06T05:23:00.102Z,97540.25
2024-01-06T05:25:01.532Z,97553.84
2024-01-06T05:27:03.090Z,97551.41
2024-01-06T05:29:04.586Z,97560.63
2024-01-06T05:31:06.514Z,97560.09
2024-01-06T05:33:14.218Z,97562.28
2024-01-06T05:35:17.567Z,97568.78
2024-01-06T05:37:19.042Z,97570.97
2024-01-06T05:39:20.590Z,97569.31
2024-01-06T05:41:22.127Z,97575.84
2024-01-06T05:43:23.708Z,97576.94
2024-01-06T05:45:27.582Z,97578.03
2024-01-06T05:47:31.625Z,97572.03
2024-01-06T05:49:33.258Z,97569.56
2024-01-06T05:51:34.836Z,97577.75
2024-01-06T05:53:37.176Z,97577.19
2024-01-06T05:55:39.676Z,97584.81
2024-01-06T05:57:41.206Z,97581.25
2024-01-06T05:59:42.680Z,97591.31
2024-01-06T06:01:44.869Z,97595.09
2024-01-06T06:03:47.822Z,97597.03
2024-01-06T06:05:49.365Z,97600.00
2024-01-06T06:07:51.310Z,97607.31
2024-01-06T06:11:55.724Z,97606.78
2024-01-06T06:13:57.168Z,97619.00
2024-01-06T06:15:59.044Z,97619.81
2024-01-06T06:18:01.848Z,97628.25
2024-01-06T06:20:04.165Z,97632.31
2024-01-06T06:22:05.888Z,97632.31
2024-01-06T06:24:07.816Z,97637.50
2024-01-06T06:26:09.837Z,97635.84
2024-01-06T06:28:11.379Z,97637.75
2024-01-06T06:30:13.602Z,97638.84
2024-01-06T06:32:15.157Z,97636.38
2024-01-06T06:34:16.836Z,97641.00
2024-01-06T06:36:18.448Z,97637.47
2024-01-06T06:38:19.917Z,97638.81
2024-01-06T06:40:21.457Z,97637.97
2024-01-06T06:42:23.147Z,97649.13
2024-01-06T06:44:25.091Z,97642.03
2024-01-06T06:46:26.636Z,97653.19
2024-01-06T06:48:28.111Z,97648.81
2024-01-06T06:50:29.578Z,97656.16
2024-01-06T06:52:31.056Z,97657.25
2024-01-06T06:54:32.634Z,97649.34
2024-01-06T06:56:34.115Z,97659.38
2024-01-06T06:58:35.527Z,97656.13
2024-01-06T07:00:37.071Z,97667.81
2024-01-06T07:02:38.950Z,97664.56
2024-01-06T07:04:40.521Z,97664.78
2024-01-06T07:06:42.133Z,97664.25
2024-01-06T07:08:43.724Z,97661.81
2024-01-06T07:10:45.280Z,97670.19
2024-01-06T07:12:46.862Z,97678.63
2024-01-06T07:14:48.493Z,97684.06
2024-01-06T07:16:50.036Z,97681.63
2024-01-06T07:18:51.698Z,97689.19
2024-01-06T07:20:53.257Z,97689.19
2024-01-06T07:22:54.756Z,97694.63
2024-01-06T07:24:56.311Z,97703.03
2024-01-06T07:26:59.784Z,97700.59
2024-01-06T07:29:01.247Z,97705.22
2024-01-06T07:31:02.997Z,97701.94
2024-01-06T07:33:04.928Z,97702.72
2024-01-06T07:35:08.326Z,97710.34
2024-01-06T07:37:10.108Z,97726.63
2024-01-06T07:39:11.710Z,97719.59
2024-01-06T07:41:13.361Z,97722.31
2024-01-06T07:43:16.341Z,97722.53
2024-01-06T07:45:18.156Z,97722.81
2024-01-06T07:47:19.642Z,97719.00
2024-01-06T07:49:24.206Z,97724.69
2024-01-06T07:51:26.215Z,97734.75
2024-01-06T07:53:27.731Z,97733.13
2024-01-06T07:55:29.924Z,97726.31
2024-01-06T07:57:31.568Z,97720.06
2024-01-06T07:59:35.985Z,97730.09
2024-01-06T08:01:37.459Z,97740.13
2024-01-06T08:03:38.956Z,97737.41
2024-01-06T08:05:40.591Z,97742.84
2024-01-06T08:07:43.363Z,97742.84
2024-01-06T08:09:44.940Z,97739.31
2024-01-06T08:11:49.260Z,97742.84
2024-01-06T08:13:50.765Z,97737.41
2024-01-06T08:15:52.401Z,97741.78
2024-01-06T08:17:54.114Z,97741.50
2024-01-06T08:19:56.151Z,97752.13
2024-01-06T08:21:57.741Z,97753.75
2024-01-06T08:23:59.227Z,97747.25
2024-01-06T08:26:00.936Z,97749.97
2024-01-06T08:28:02.419Z,97752.41
2024-01-06T08:30:04.627Z,97750.53
2024-01-06T08:32:06.594Z,97757.63
2024-01-06T08:34:09.298Z,97755.69
2024-01-06T08:36:10.966Z,97763.59
2024-01-06T08:38:12.440Z,97760.06
2024-01-06T08:40:14.008Z,97766.31
2024-01-06T08:42:16.010Z,97770.41
2024-01-06T08:44:17.527Z,97771.25
2024-01-06T08:46:18.977Z,97769.31
2024-01-06T08:48:21.192Z,97769.91
2024-01-06T08:50:22.729Z,97770.69
2024-01-06T08:52:24.237Z,97771.53
2024-01-06T08:54:26.301Z,97768.56
2024-01-06T08:56:27.809Z,97777.50
2024-01-06T08:58:29.265Z,97769.13
2024-01-06T09:00:32.936Z,97773.47
2024-01-06T09:02:34.456Z,97772.13
2024-01-06T09:04:36.011Z,97774.59
2024-01-06T09:06:37.535Z,97778.69
2024-01-06T09:08:39.004Z,97770.28
2024-01-06T09:10:40.485Z,97777.34
2024-01-06T09:12:41.940Z,97781.19
2024-01-06T09:14:43.481Z,97779.03
2024-01-06T09:16:44.953Z,97772.50
2024-01-06T09:18:46.571Z,97777.44
2024-01-06T09:20:51.137Z,97783.19
2024-01-06T09:22:52.803Z,97790.56
2024-01-06T09:24:54.353Z,97787.56
2024-01-06T09:26:56.004Z,97790.59
2024-01-06T09:28:57.481Z,97794.94
2024-01-06T09:30:59.074Z,97803.66
2024-01-06T09:33:00.641Z,97805.03
2024-01-06T09:35:02.221Z,97809.16
2024-01-06T09:37:04.229Z,97801.78
2024-01-06T09:39:05.701Z,97802.38
2024-01-06T09:41:07.324Z,97804.81
2024-01-06T09:43:08.823Z,97798.03
2024-01-06T09:45:10.489Z,97804.84
2024-01-06T09:47:13.312Z,97799.13
2024-01-06T09:49:16.297Z,97810.59
2024-01-06T09:51:20.862Z,97806.78
2024-01-06T09:53:24.508Z,97806.25
2024-01-06T09:55:27.708Z,97808.69
2024-01-06T09:57:30.074Z,97812.78
2024-01-06T09:59:35.729Z,97811.44
2024-01-06T10:01:37.406Z,97809.03
2024-01-06T10:03:39.285Z,97804.97
2024-01-06T10:05:41.657Z,97801.72
2024-01-06T10:07:44.878Z,97798.50
2024-01-06T10:09:46.429Z,97799.59
2024-01-06T10:11:51.101Z,97799.06
2024-01-06T10:13:53.321Z,97809.44
2024-01-06T10:15:55.809Z,97805.91
2024-01-06T10:17:58.271Z,97813.56
2024-01-06T10:20:01.271Z,97803.22
2024-01-06T10:22:06.348Z,97808.94
2024-01-06T10:24:09.505Z,97813.03
2024-01-06T10:26:14.312Z,97808.16
2024-01-06T10:28:15.873Z,97812.25
2024-01-06T10:30:19.444Z,97812.81
2024-01-06T10:32:21.098Z,97803.53
2024-01-06T10:34:26.284Z,97808.44
2024-01-06T10:36:29.695Z,97805.50
2024-01-06T10:38:31.413Z,97809.00
2024-01-06T10:42:34.684Z,97803.03
2024-01-06T10:44:38.291Z,97805.22
2024-01-06T10:46:40.742Z,97812.03
2024-01-06T10:48:46.889Z,97814.28
2024-01-06T10:50:49.177Z,97811.28
2024-01-06T10:52:51.700Z,97812.66
2024-01-06T10:54:55.055Z,97807.75
2024-01-06T10:56:58.450Z,97805.84
2024-01-06T10:59:02.216Z,97810.75
2024-01-06T11:01:04.463Z,97805.88
2024-01-06T11:03:07.321Z,97811.84
2024-01-06T11:05:11.589Z,97805.88
2024-01-06T11:07:16.123Z,97813.53
2024-01-06T11:09:22.514Z,97809.19
2024-01-06T11:11:24.947Z,97810.56
2024-01-06T11:13:27.299Z,97811.94
2024-01-06T11:15:52.183Z,97810.56
2024-01-06T11:18:00.157Z,97802.66
2024-01-06T11:20:09.033Z,97802.41
2024-01-06T11:22:32.676Z,97804.56
2024-01-06T11:24:38.263Z,97807.59
2024-01-06T11:26:41.422Z,97813.59
2024-01-06T11:28:47.649Z,97810.34
2024-01-06T11:31:06.206Z,97818.78
2024-01-06T11:33:09.534Z,97820.97
2024-01-06T11:35:16.251Z,97810.34
2024-01-06T11:37:28.420Z,97812.53
2024-01-06T11:39:39.639Z,97810.91
2024-01-06T11:41:52.492Z,97807.91
2024-01-06T11:43:55.024Z,97803.56
2024-01-06T11:46:00.489Z,97802.19
2024-01-06T11:48:07.958Z,97803.84
2024-01-06T11:50:10.662Z,97809.84
2024-01-06T11:52:14.506Z,97800.28
2024-01-06T11:54:16.188Z,97788.84
2024-01-06T11:56:23.493Z,97795.09
2024-01-06T11:58:26.260Z,97800.84
2024-01-06T12:00:28.014Z,97791.56
2024-01-06T12:02:29.504Z,97789.41
2024-01-06T12:04:31.242Z,97785.31
2024-01-06T12:06:33.628Z,97798.41
2024-01-06T12:08:35.147Z,97788.28
2024-01-06T12:10:39.312Z,97795.09
2024-01-06T12:12:40.858Z,97793.72
2024-01-06T12:14:46.478Z,97795.09
2024-01-06T12:16:48.035Z,97782.28
2024-01-06T12:18:52.526Z,97786.38
2024-01-06T12:20:55.233Z,97781.47
2024-01-06T12:22:57.050Z,97781.19
2024-01-06T12:24:59.860Z,97783.66
2024-01-06T12:27:01.391Z,97778.72
2024-01-06T12:29:05.373Z,97780.38
2024-01-06T12:31:10.655Z,97779.81
2024-01-06T12:33:12.547Z,97779.81
2024-01-06T12:35:15.271Z,97778.47
2024-01-06T12:37:18.194Z,97780.06
2024-01-06T12:39:19.775Z,97771.09
2024-01-06T12:41:22.077Z,97777.91
2024-01-06T12:43:23.525Z,97776.56
2024-01-06T12:45:25.129Z,97773.53
2024-01-06T12:47:26.692Z,97774.06
2024-01-06T12:49:28.250Z,97771.09
2024-01-06T12:51:29.926Z,97770.81
2024-01-06T12:53:31.629Z,97767.78
2024-01-06T12:55:33.135Z,97762.88
2024-01-06T12:57:35.065Z,97772.69
2024-01-06T12:59:36.812Z,97779.50
2024-01-06T13:01:38.754Z,97773.78
2024-01-06T13:03:40.491Z,97775.16
2024-01-06T13:05:42.034Z,97775.69
2024-01-06T13:07:43.521Z,97772.41
2024-01-06T13:09:45.588Z,97760.38
2024-01-06T13:11:48.219Z,97769.38
2024-01-06T13:13:52.281Z,97775.41
2024-01-06T13:15:53.873Z,97777.34
2024-01-06T13:17:58.909Z,97774.00
2024-01-06T13:20:01.050Z,97784.13
2024-01-06T13:22:08.685Z,97785.19
2024-01-06T13:24:11.350Z,97789.00
2024-01-06T13:26:16.042Z,97787.34
2024-01-06T13:28:20.973Z,97786.53
2024-01-06T13:30:22.564Z,97781.88
2024-01-06T13:32:24.350Z,97784.03
2024-01-06T13:34:26.576Z,97787.84
2024-01-06T13:36:28.281Z,97794.34
2024-01-06T13:38:29.860Z,97791.59
2024-01-06T13:40:31.768Z,97789.16
2024-01-06T13:42:33.258Z,97788.84
2024-01-06T13:44:34.804Z,97794.59
2024-01-06T13:46:36.346Z,97798.66
2024-01-06T13:48:37.903Z,97798.94
2024-01-06T13:53:25.238Z,97793.19
2024-01-06T13:55:26.818Z,97796.97
2024-01-06T13:57:28.362Z,97804.09
2024-01-06T13:59:29.827Z,97802.19
2024-01-06T14:01:31.673Z,97816.09
2024-01-06T14:03:34.132Z,97809.81
2024-01-06T14:05:36.612Z,97810.09
2024-01-06T14:07:39.684Z,97810.09
2024-01-06T14:09:43.511Z,97817.47
2024-01-06T14:11:50.620Z,97821.00
2024-01-06T14:14:00.325Z,97818.56
2024-01-06T14:16:02.082Z,97825.94
2024-01-06T14:18:05.508Z,97828.69
2024-01-06T14:20:13.964Z,97829.50
2024-01-06T14:22:18.366Z,97827.88
2024-01-06T14:24:24.603Z,97831.72
2024-01-06T14:26:26.316Z,97831.97
2024-01-06T14:28:27.793Z,97837.44
2024-01-06T14:30:30.409Z,97832.53
2024-01-06T14:32:34.224Z,97831.72
2024-01-06T14:34:35.758Z,97833.91
2024-01-06T14:36:41.499Z,97831.16
2024-01-06T14:38:45.966Z,97834.19
2024-01-06T14:40:47.621Z,97829.28
2024-01-06T14:42:49.806Z,97833.13
2024-01-06T14:44:51.315Z,97828.75
2024-01-06T14:46:56.553Z,97829.84
2024-01-06T14:48:58.254Z,97833.41
2024-01-06T14:50:59.712Z,97837.25
2024-01-06T14:53:01.213Z,97834.50
2024-01-06T14:55:02.742Z,97846.22
2024-01-06T14:57:04.389Z,97849.25
2024-01-06T14:59:07.261Z,97851.44
2024-01-06T15:01:08.924Z,97844.34
2024-01-06T15:03:10.414Z,97846.25
2024-01-06T15:05:22.650Z,97847.38
2024-01-06T15:08:00.433Z,97852.28
2024-01-06T15:10:05.675Z,97842.44
2024-01-06T15:15:24.343Z,97862.66
2024-01-06T15:17:42.279Z,97855.56
2024-01-06T15:19:59.261Z,97857.19
2024-01-06T15:22:19.738Z,97853.38
2024-01-06T15:24:21.367Z,97855.03
2024-01-06T15:26:26.072Z,97857.75
2024-01-06T15:28:33.344Z,97851.19
2024-01-06T15:30:35.265Z,97853.66
2024-01-06T15:32:38.739Z,97859.91
2024-01-06T15:34:40.362Z,97864.28
2024-01-06T15:36:42.199Z,97864.00
2024-01-06T15:38:43.765Z,97866.47
2024-01-06T15:40:45.276Z,97859.88
2024-01-06T15:42:46.786Z,97863.44
2024-01-06T15:44:48.342Z,97869.75
2024-01-06T15:46:50.544Z,97862.38
2024-01-06T15:48:52.080Z,97867.53
2024-01-06T15:50:53.720Z,97875.72
2024-01-06T15:52:55.187Z,97882.84
2024-01-06T15:54:57.529Z,97880.66
2024-01-06T15:56:59.022Z,97877.09
2024-01-06T15:59:01.477Z,97879.56
2024-01-06T16:01:05.153Z,97880.34
2024-01-06T16:03:07.450Z,97886.66
2024-01-06T16:05:11.749Z,97885.81
2024-01-06T16:07:13.449Z,97883.09
2024-01-06T16:09:15.652Z,97877.38
2024-01-06T16:11:17.657Z,97883.91
2024-01-06T16:13:20.634Z,97887.19
2024-01-06T16:15:22.195Z,97880.09
2024-01-06T16:17:26.863Z,97883.66
2024-01-06T16:19:29.395Z,97883.66
2024-01-06T16:21:32.184Z,97891.56
2024-01-06T16:23:33.740Z,97892.38
2024-01-06T16:25:38.476Z,97888.84
2024-01-06T16:27:42.226Z,97885.00
2024-01-06T16:29:46.469Z,97876.81
2024-01-06T16:31:48.232Z,97879.56
2024-01-06T16:33:50.034Z,97888.53
2024-01-06T16:35:51.607Z,97885.81
2024-01-06T16:37:53.093Z,97887.75
2024-01-06T16:39:54.599Z,97908.50
2024-01-06T16:41:58.244Z,97904.94
2024-01-06T16:43:59.730Z,97904.94
2024-01-06T16:46:01.281Z,97897.56
2024-01-06T16:48:04.226Z,97907.66
2024-01-06T16:50:06.461Z,97904.16
2024-01-06T16:52:08.035Z,97903.03
2024-01-06T16:54:09.598Z,97907.66
2024-01-06T16:56:11.358Z,97916.69
2024-01-06T16:58:15.568Z,97909.59
2024-01-06T17:00:20.371Z,97912.34
2024-01-06T17:02:21.814Z,97903.31
2024-01-06T17:04:23.717Z,97906.31
2024-01-06T17:06:25.412Z,97900.84
2024-01-06T17:08:26.942Z,97899.22
2024-01-06T17:10:28.468Z,97905.78
2024-01-06T17:12:30.025Z,97909.63
2024-01-06T17:14:31.497Z,97920.81
2024-01-06T17:16:33.318Z,97919.19
2024-01-06T17:18:34.936Z,97923.84
2024-01-06T17:20:40.538Z,97928.47
2024-01-06T17:22:55.874Z,97927.13
2024-01-06T17:24:57.327Z,97932.88
2024-01-06T17:26:58.778Z,97938.59
2024-01-06T17:29:02.356Z,97936.97
2024-01-06T17:31:04.480Z,97934.25
2024-01-06T17:33:06.102Z,97943.53
2024-01-06T17:35:08.594Z,97944.34
2024-01-06T17:37:10.106Z,97943.00
2024-01-06T17:39:11.584Z,97949.28
2024-01-06T17:41:14.114Z,97947.91
2024-01-06T17:43:15.691Z,97941.09
2024-01-06T17:45:17.255Z,97944.63
2024-01-06T17:47:20.015Z,97943.81
2024-01-06T17:49:22.255Z,97953.09
2024-01-06T17:51:28.765Z,97951.19
2024-01-06T17:53:31.121Z,97953.09
2024-01-06T17:55:33.478Z,97949.53
2024-01-06T17:57:36.004Z,97949.84
2024-01-06T17:59:37.740Z,97951.44
2024-01-06T18:01:39.286Z,97955.00
2024-01-06T18:03:41.723Z,97952.56
2024-01-06T18:05:43.325Z,97952.03
2024-01-06T18:07:44.921Z,97956.66
2024-01-06T18:09:46.506Z,97956.91
2024-01-06T18:11:48.901Z,97958.88
2024-01-06T18:13:50.438Z,97958.28
2024-01-06T18:15:52.025Z,97955.56
2024-01-06T18:17:53.565Z,97960.50
2024-01-06T18:19:55.142Z,97961.59
2024-01-06T18:22:00.274Z,97961.59
2024-01-06T18:24:07.070Z,97958.03
2024-01-06T18:26:08.565Z,97956.69
2024-01-06T18:28:25.872Z,97966.78
2024-01-06T18:30:27.434Z,97959.66
2024-01-06T18:32:29.144Z,97967.84
2024-01-06T18:34:31.235Z,97965.94
2024-01-06T18:36:33.442Z,97968.97
2024-01-06T18:38:35.194Z,97958.88
2024-01-06T18:40:36.975Z,97965.41
2024-01-06T18:42:38.601Z,97966.50
2024-01-06T18:44:40.527Z,97964.88
2024-01-06T18:46:43.441Z,97965.69
2024-01-06T18:48:45.109Z,97966.50
2024-01-06T18:50:48.285Z,97967.59
2024-01-06T18:52:50.416Z,97961.59
2024-01-06T18:54:54.168Z,97967.31
2024-01-06T18:56:55.726Z,97966.50
2024-01-06T18:58:57.136Z,97962.16
2024-01-06T19:00:58.799Z,97960.25
2024-01-06T19:03:01.590Z,97961.03
2024-01-06T19:05:03.680Z,97962.16
2024-01-06T19:07:05.252Z,97966.78
2024-01-06T19:09:07.668Z,97971.41
2024-01-06T19:11:10.147Z,97971.97
2024-01-06T19:13:13.123Z,97974.69
2024-01-06T19:15:14.690Z,97973.06
2024-01-06T19:17:17.159Z,97974.16
2024-01-06T19:19:22.174Z,97969.50
2024-01-06T19:21:24.335Z,97968.69
2024-01-06T19:23:25.785Z,97975.25
2024-01-06T19:25:27.526Z,97972.53
2024-01-06T19:27:30.382Z,97976.06
2024-01-06T19:29:32.326Z,97967.63
2024-01-06T19:31:33.930Z,97969.53
2024-01-06T19:33:35.737Z,97972.25
2024-01-06T19:35:37.311Z,97979.63
2024-01-06T19:37:38.991Z,97972.25
2024-01-06T19:39:40.841Z,97981.25
2024-01-06T19:41:42.346Z,97978.78
2024-01-06T19:43:44.212Z,97976.88
2024-01-06T19:45:45.717Z,97969.81
2024-01-06T19:47:47.410Z,97977.16
2024-01-06T19:49:49.054Z,97980.72
2024-01-06T19:51:51.252Z,97979.06
2024-01-06T19:53:52.769Z,97981.81
2024-01-06T19:55:54.648Z,97984.53
2024-01-06T19:57:56.223Z,97983.72
2024-01-06T19:59:59.787Z,97984.53
2024-01-06T20:02:01.387Z,97986.72
2024-01-06T20:04:02.970Z,97979.63
2024-01-06T20:06:06.324Z,97978.00
2024-01-06T20:08:08.683Z,97979.06
2024-01-06T20:10:12.131Z,97975.50
2024-01-06T20:12:13.953Z,97980.97
2024-01-06T20:14:15.421Z,97991.31
2024-01-06T20:16:17.324Z,97988.59
2024-01-06T20:18:18.923Z,97982.31
2024-01-06T20:20:20.405Z,97978.53
2024-01-06T20:22:22.551Z,97976.84
2024-01-06T20:24:24.200Z,97975.22
2024-01-06T20:26:27.080Z,97979.88
2024-01-06T20:28:28.849Z,97971.94
2024-01-06T20:30:30.511Z,97972.50
2024-01-06T20:32:33.552Z,97966.22
2024-01-06T20:34:36.402Z,97969.19
2024-01-06T20:36:37.917Z,97968.38
2024-01-06T20:38:40.180Z,97962.13
2024-01-06T20:40:42.722Z,97966.47
2024-01-06T20:42:44.227Z,97971.91
2024-01-06T20:44:45.774Z,97960.47
2024-01-06T20:46:48.861Z,97964.28
2024-01-06T20:48:50.634Z,97963.72
2024-01-06T20:50:52.364Z,97967.56
2024-01-06T20:52:54.009Z,97960.44
2024-01-06T20:57:54.027Z,97961.81
2024-01-06T21:00:57.118Z,97967.56
2024-01-06T21:02:59.051Z,97966.97
2024-01-06T21:05:05.143Z,97969.72
2024-01-06T21:07:07.672Z,97968.63
2024-01-06T21:09:10.458Z,97968.63
2024-01-06T21:11:12.038Z,97971.38
2024-01-06T21:13:13.489Z,97965.06
2024-01-06T21:15:15.637Z,97967.81
2024-01-06T21:17:17.168Z,97967.28
2024-01-06T21:19:20.040Z,97962.88
2024-01-06T21:21:21.787Z,97966.44
2024-01-06T21:23:35.469Z,97960.97
2024-01-06T21:25:46.628Z,97961.53
2024-01-06T21:27:48.821Z,97966.44
2024-01-06T21:29:50.312Z,97959.34
2024-01-06T21:31:52.155Z,97973.00
2024-01-06T21:33:55.943Z,97964.81
2024-01-06T21:35:58.462Z,97963.16
2024-01-06T21:38:13.012Z,97970.81
2024-01-06T21:40:14.881Z,97965.06
2024-01-06T21:42:19.169Z,97972.44
2024-01-06T21:44:24.226Z,97958.53
2024-01-06T21:46:25.858Z,97973.00
2024-01-06T21:51:23.315Z,97978.72
2024-01-06T21:53:24.761Z,97970.81
2024-01-06T21:55:26.729Z,97973.53
2024-01-06T21:57:28.249Z,97971.88
2024-01-06T21:59:29.939Z,97974.59
2024-01-06T22:01:31.494Z,97975.72
2024-01-06T22:03:33.155Z,97982.25
2024-01-06T22:05:34.696Z,97986.06
2024-01-06T22:07:36.252Z,97985.25
2024-01-06T22:09:37.761Z,97982.78
2024-01-06T22:11:39.558Z,97981.94
2024-01-06T22:13:41.354Z,97981.16
2024-01-06T22:15:42.889Z,97979.50
2024-01-06T22:17:44.433Z,97983.31
2024-01-06T22:19:45.984Z,97979.78
2024-01-06T22:21:50.266Z,97977.59
2024-01-06T22:23:52.216Z,97982.22
2024-01-06T22:25:53.714Z,97988.50
2024-01-06T22:27:55.801Z,97988.75
2024-01-06T22:29:57.323Z,97992.03
2024-01-06T22:31:59.082Z,97989.31
2024-01-06T22:34:01.002Z,97983.88
2024-01-06T22:36:02.520Z,97984.66
2024-01-06T22:38:04.328Z,97981.13
2024-01-06T22:40:06.937Z,97979.47
2024-01-06T22:42:09.071Z,97983.03
2024-01-06T22:44:10.572Z,97985.75
2024-01-06T22:46:12.200Z,97986.59
2024-01-06T22:48:13.708Z,97987.66
2024-01-06T22:50:15.321Z,97983.28
2024-01-06T22:52:16.810Z,97991.47
2024-01-06T22:54:18.503Z,97988.75
2024-01-06T22:56:20.117Z,97991.47
2024-01-06T22:58:21.692Z,97992.28
2024-01-06T23:00:28.915Z,97993.41
2024-01-06T23:02:30.851Z,97991.47
2024-01-06T23:04:32.397Z,97994.19
2024-01-06T23:06:34.001Z,97995.03
2024-01-06T23:08:36.607Z,97998.84
2024-01-06T23:10:38.720Z,97993.41
2024-01-06T23:12:40.350Z,97992.56
2024-01-06T23:14:41.809Z,98004.31
2024-01-06T23:16:44.267Z,97998.56
2024-01-06T23:18:46.159Z,98002.97
2024-01-06T23:20:47.934Z,98007.59
2024-01-06T23:22:49.610Z,98004.84
2024-01-06T23:24:51.082Z,98012.75
2024-01-06T23:26:52.563Z,98016.31
2024-01-06T23:28:54.517Z,98016.31
2024-01-06T23:30:56.145Z,98012.50
2024-01-06T23:32:57.842Z,98015.78
2024-01-06T23:34:59.857Z,98019.06
2024-01-06T23:37:01.538Z,98021.50
2024-01-06T23:39:03.103Z,98030.50
2024-01-06T23:41:05.016Z,98014.16
2024-01-06T23:43:08.647Z,98025.59
2024-01-06T23:45:10.249Z,98019.34
2024-01-06T23:47:11.801Z,98020.97
2024-01-06T23:49:14.908Z,98030.00
2024-01-06T23:51:18.497Z,98024.25
2024-01-06T23:53:20.056Z,98024.25
2024-01-06T23:55:21.762Z,98023.16
2024-01-06T23:57:23.254Z,98035.47
2024-01-06T23:59:24.784Z,98034.38
